createdAt,value
2022-12-20T00:01:43.516Z,10.20
2022-12-20T00:05:07.080Z,10.20
2022-12-20T00:08:30.279Z,10.20
2022-12-20T00:11:53.218Z,10.10
2022-12-20T00:15:16.230Z,10.10
2022-12-20T00:18:41.656Z,10.00
2022-12-20T00:22:04.628Z,10.00
2022-12-20T00:25:27.559Z,10.00
2022-12-20T00:28:50.480Z,10.00
2022-12-20T00:32:13.497Z,10.00
2022-12-20T00:35:42.611Z,10.10
2022-12-20T00:39:05.802Z,10.10
2022-12-20T00:42:29.745Z,10.20
2022-12-20T00:45:52.685Z,10.30
2022-12-20T00:49:16.595Z,10.30
2022-12-20T00:52:40.862Z,10.20
2022-12-20T00:56:04.976Z,10.00
2022-12-20T00:59:27.920Z,9.90
2022-12-20T01:02:51.910Z,9.90
2022-12-20T01:06:14.988Z,9.90
2022-12-20T01:09:39.257Z,9.90
2022-12-20T01:13:02.156Z,10.00
2022-12-20T01:16:27.854Z,10.00
2022-12-20T01:19:50.832Z,10.00
2022-12-20T01:23:14.076Z,10.00
2022-12-20T01:26:39.123Z,10.00
2022-12-20T01:30:02.003Z,10.10
2022-12-20T01:33:25.351Z,10.20
2022-12-20T01:36:49.484Z,10.20
2022-12-20T01:40:13.004Z,10.20
2022-12-20T01:43:49.919Z,10.20
2022-12-20T01:47:14.505Z,10.20
2022-12-20T01:50:37.615Z,10.20
2022-12-20T01:54:05.899Z,10.30
2022-12-20T01:57:34.969Z,10.20
2022-12-20T02:01:00.318Z,10.20
2022-12-20T02:04:23.257Z,10.20
2022-12-20T02:07:49.852Z,10.20
2022-12-20T02:11:27.772Z,10.10
2022-12-20T02:15:05.387Z,10.00
2022-12-20T02:18:35.404Z,10.00
2022-12-20T02:22:09.464Z,10.00
2022-12-20T02:25:50.655Z,10.10
2022-12-20T02:29:26.128Z,10.00
2022-12-20T02:33:00.492Z,10.00
2022-12-20T02:36:23.414Z,10.00
2022-12-20T02:39:48.404Z,9.70
2022-12-20T02:43:33.587Z,9.60
2022-12-20T02:46:58.340Z,9.60
2022-12-20T02:50:27.477Z,9.60
2022-12-20T02:53:50.984Z,9.60
2022-12-20T02:57:19.567Z,9.50
2022-12-20T03:00:45.603Z,9.20
2022-12-20T03:04:09.822Z,9.10
2022-12-20T03:07:36.562Z,9.00
2022-12-20T03:10:59.582Z,8.90
2022-12-20T03:14:22.913Z,8.90
2022-12-20T03:17:47.362Z,8.90
2022-12-20T03:21:10.284Z,8.90
2022-12-20T03:24:34.587Z,8.80
2022-12-20T03:28:02.174Z,8.80
2022-12-20T03:31:25.506Z,8.80
2022-12-20T03:34:50.744Z,8.90
2022-12-20T03:38:20.140Z,8.90
2022-12-20T03:41:44.698Z,9.00
2022-12-20T03:45:11.886Z,9.10
2022-12-20T03:48:34.960Z,9.20
2022-12-20T03:51:57.923Z,9.30
2022-12-20T03:55:21.231Z,9.30
2022-12-20T03:58:45.639Z,9.20
2022-12-20T04:02:10.691Z,9.10
2022-12-20T04:05:33.894Z,9.00
2022-12-20T04:08:57.310Z,9.00
2022-12-20T04:12:25.526Z,9.00
2022-12-20T04:15:53.012Z,9.00
2022-12-20T04:19:20.298Z,9.00
2022-12-20T04:22:43.587Z,9.00
2022-12-20T04:26:08.827Z,9.00
2022-12-20T04:29:32.099Z,9.00
2022-12-20T04:32:58.083Z,8.90
2022-12-20T04:36:23.113Z,9.00
2022-12-20T04:39:48.089Z,8.90
2022-12-20T04:43:34.224Z,8.90
2022-12-20T04:46:59.892Z,8.90
2022-12-20T04:50:25.504Z,8.90
2022-12-20T04:53:48.814Z,8.90
2022-12-20T04:57:22.103Z,8.90
2022-12-20T05:00:45.401Z,8.90
2022-12-20T05:04:23.043Z,8.90
2022-12-20T05:07:47.535Z,8.90
2022-12-20T05:11:11.111Z,8.90
2022-12-20T05:14:34.232Z,8.90
2022-12-20T05:18:00.252Z,8.90
2022-12-20T05:21:48.210Z,8.90
2022-12-20T05:25:30.831Z,8.90
2022-12-20T05:28:57.506Z,9.00
2022-12-20T05:32:21.880Z,8.90
2022-12-20T05:35:45.236Z,8.90
2022-12-20T05:39:11.587Z,8.90
2022-12-20T05:42:38.238Z,8.90
2022-12-20T05:46:01.626Z,8.90
2022-12-20T05:49:33.637Z,9.00
2022-12-20T05:52:58.695Z,8.90
2022-12-20T05:56:22.094Z,8.90
2022-12-20T05:59:46.597Z,9.00
2022-12-20T06:03:15.182Z,8.90
2022-12-20T06:06:38.660Z,9.00
2022-12-20T06:10:01.708Z,9.00
2022-12-20T06:13:40.572Z,9.00
2022-12-20T06:17:06.441Z,9.10
2022-12-20T06:20:29.796Z,9.10
2022-12-20T06:23:56.277Z,9.10
2022-12-20T06:27:21.471Z,9.10
2022-12-20T06:30:54.942Z,9.10
2022-12-20T06:34:33.774Z,9.10
2022-12-20T06:37:58.032Z,9.10
2022-12-20T06:41:21.467Z,9.10
2022-12-20T06:44:44.632Z,9.20
2022-12-20T06:48:07.797Z,9.20
2022-12-20T06:51:33.081Z,9.30
2022-12-20T06:54:56.966Z,9.30
2022-12-20T06:58:20.830Z,9.30
2022-12-20T07:01:45.050Z,9.30
2022-12-20T07:05:08.881Z,9.30
2022-12-20T07:08:33.223Z,9.30
2022-12-20T07:11:56.236Z,9.30
2022-12-20T07:15:19.186Z,9.30
2022-12-20T07:18:42.171Z,9.40
2022-12-20T07:22:05.765Z,9.40
2022-12-20T07:25:30.745Z,9.40
2022-12-20T07:28:53.715Z,9.40
2022-12-20T07:32:16.895Z,9.50
2022-12-20T07:35:40.301Z,9.50
2022-12-20T07:39:03.448Z,9.50
2022-12-20T07:42:33.889Z,9.40
2022-12-20T07:46:00.431Z,9.40
2022-12-20T07:49:23.577Z,9.40
2022-12-20T07:52:50.412Z,9.40
2022-12-20T07:56:14.888Z,9.50
2022-12-20T07:59:42.086Z,9.50
2022-12-20T08:03:09.016Z,9.60
2022-12-20T08:06:32.831Z,9.60
2022-12-20T08:09:55.778Z,9.60
2022-12-20T08:13:19.182Z,9.50
2022-12-20T08:16:43.634Z,9.50
2022-12-20T08:20:08.602Z,9.50
2022-12-20T08:23:31.512Z,9.50
2022-12-20T08:26:54.443Z,9.50
2022-12-20T08:30:18.553Z,9.60
2022-12-20T08:33:42.911Z,9.70
2022-12-20T08:37:14.375Z,9.70
2022-12-20T08:40:37.852Z,9.70
2022-12-20T08:44:00.833Z,9.80
2022-12-20T08:47:23.852Z,9.80
2022-12-20T08:50:48.417Z,9.80
2022-12-20T08:54:11.354Z,9.80
2022-12-20T08:57:35.147Z,9.80
2022-12-20T09:01:05.907Z,9.80
2022-12-20T09:04:29.590Z,9.90
2022-12-20T09:07:54.653Z,9.90
2022-12-20T09:11:19.421Z,9.90
2022-12-20T09:14:42.829Z,9.90
2022-12-20T09:18:06.540Z,9.90
2022-12-20T09:21:29.960Z,9.90
2022-12-20T09:24:54.283Z,9.90
2022-12-20T09:28:17.226Z,9.90
2022-12-20T09:31:40.183Z,9.80
2022-12-20T09:35:03.455Z,9.80
2022-12-20T09:38:27.214Z,9.70
2022-12-20T09:41:51.467Z,9.70
2022-12-20T09:45:21.790Z,9.70
2022-12-20T09:48:45.615Z,9.80
2022-12-20T09:52:29.884Z,9.80
2022-12-20T09:55:59.989Z,9.90
2022-12-20T09:59:24.476Z,9.90
2022-12-20T10:03:09.892Z,9.90
2022-12-20T10:06:41.957Z,9.90
2022-12-20T10:10:24.452Z,9.90
2022-12-20T10:14:00.008Z,9.90
2022-12-20T10:17:32.886Z,9.90
2022-12-20T10:21:01.802Z,10.00
2022-12-20T10:24:30.313Z,10.10
2022-12-20T10:27:56.909Z,10.10
2022-12-20T10:31:19.981Z,10.10
2022-12-20T10:34:53.036Z,10.20
2022-12-20T10:38:17.606Z,10.30
2022-12-20T10:41:51.891Z,10.40
2022-12-20T10:45:36.421Z,10.30
2022-12-20T10:49:19.536Z,10.30
2022-12-20T10:52:45.497Z,10.30
2022-12-20T10:56:18.273Z,10.40
2022-12-20T10:59:45.450Z,10.40
2022-12-20T11:03:15.737Z,10.50
2022-12-20T11:06:45.457Z,10.50
2022-12-20T11:10:20.300Z,10.40
2022-12-20T11:13:44.552Z,10.40
2022-12-20T11:17:20.597Z,10.40
2022-12-20T11:20:48.840Z,10.50
2022-12-20T11:24:19.405Z,10.60
2022-12-20T11:27:50.951Z,10.60
2022-12-20T11:31:21.721Z,10.60
2022-12-20T11:34:55.568Z,10.50
2022-12-20T11:38:28.740Z,10.50
2022-12-20T11:41:59.998Z,10.50
2022-12-20T11:45:31.417Z,10.50
2022-12-20T11:49:08.476Z,10.60
2022-12-20T11:52:38.023Z,10.70
2022-12-20T11:56:06.542Z,10.80
2022-12-20T11:59:36.536Z,10.90
2022-12-20T12:03:10.392Z,11.00
2022-12-20T12:06:37.256Z,11.20
2022-12-20T12:10:03.286Z,11.20
2022-12-20T12:13:28.765Z,11.30
2022-12-20T12:16:58.696Z,11.40
2022-12-20T12:20:32.792Z,11.50
2022-12-20T12:24:04.425Z,11.50
2022-12-20T12:27:28.998Z,11.50
2022-12-20T12:30:58.833Z,11.40
2022-12-20T12:34:35.049Z,11.40
2022-12-20T12:38:15.998Z,11.40
2022-12-20T12:41:58.110Z,11.50
2022-12-20T12:45:24.160Z,11.40
2022-12-20T12:48:51.887Z,11.20
2022-12-20T12:52:35.470Z,10.70
2022-12-20T12:56:19.368Z,10.30
2022-12-20T12:59:47.910Z,10.20
2022-12-20T13:03:16.646Z,10.10
2022-12-20T13:07:21.971Z,10.20
